Time;durP1;ratioP1;P1;durP2;ratioP2;P2;SDS_P1;SDS_P2;PMS_P1;PMS_P2;Temp;Humidity;BMP_temperature;BMP_pressure;BME280_temperature;BME280_humidity;BME280_pressure;Samples;Min_cycle;Max_cycle;Signal;HPM_P1;HPM_P2
2022/12/27 00:00:34;;;;;;;;;;;;;;;7.24;85.39;100843.00;4901829;29;19930;-86
2022/12/27 00:03:01;;;;;;;;;;;;;;;7.29;83.94;100845.41;4892076;29;19923;-85
2022/12/27 00:05:28;;;;;;;;;;;;;;;7.18;86.12;100856.59;4893080;29;20339;-85
2022/12/27 00:07:55;;;;;;;;;;;;;;;7.20;85.58;100851.19;4890875;29;19930;-86
2022/12/27 00:10:21;;;;;;;;;;;;;;;7.20;85.70;100854.72;4905667;29;20343;-85
2022/12/27 00:12:48;;;;;;;;;;;;;;;7.18;85.40;100865.34;4920213;29;19930;-86
2022/12/27 00:15:15;;;;;;;;;;;;;;;7.22;84.55;100866.03;4919239;29;19975;-86
2022/12/27 00:17:41;;;;;;;;;;;;;;;7.18;84.38;100872.44;4904551;29;19927;-86
2022/12/27 00:20:08;;;;;;;;;;;;;;;7.15;84.44;100869.97;4902988;29;20029;-86
2022/12/27 00:22:37;;;;;;;;;;;;;;;7.14;83.18;100879.66;4885847;29;20008;-85
2022/12/27 00:25:04;;;;;;;;;;;;;;;7.12;82.44;100880.69;4900429;29;19975;-85
2022/12/27 00:27:31;;;;;;;;;;;;;;;7.07;82.84;100880.09;4906849;29;19975;-86
2022/12/27 00:29:57;;;;;;;;;;;;;;;6.99;82.71;100885.81;4904036;29;19978;-86
2022/12/27 00:32:24;;;;;;;;;;;;;;;6.93;81.59;100888.81;4902728;29;20023;-86
2022/12/27 00:34:51;;;;;;;;;;;;;;;6.82;81.78;100891.19;4899924;29;20398;-87
2022/12/27 00:37:17;;;;;;;;;;;;;;;6.73;82.26;100885.50;4903076;29;19932;-85
2022/12/27 00:39:44;;;;;;;;;;;;;;;6.72;81.42;100885.59;4903866;29;19933;-86
2022/12/27 00:42:10;;;;;;;;;;;;;;;6.78;80.43;100890.53;4903099;29;19923;-86
2022/12/27 00:44:38;;;;;;;;;;;;;;;6.72;78.91;100893.53;4902887;29;19930;-86
2022/12/27 00:47:04;;;;;;;;;;;;;;;6.67;78.52;100893.78;4900317;29;19923;-86
2022/12/27 00:49:31;;;;;;;;;;;;;;;6.64;77.85;100906.28;4901492;29;19927;-86
2022/12/27 00:51:57;;;;;;;;;;;;;;;6.62;77.86;100902.88;4920547;29;19929;-85
2022/12/27 00:54:24;;;;;;;;;;;;;;;6.53;77.23;100910.34;4911453;29;19975;-85
2022/12/27 00:56:50;;;;;;;;;;;;;;;6.51;78.38;100919.28;4913089;29;20375;-86
2022/12/27 00:59:17;;;;;;;;;;;;;;;6.51;76.77;100914.00;4904186;29;19929;-85
2022/12/27 01:01:44;;;;;;;;;;;;;;;6.47;76.41;100917.75;4917501;29;19927;-86
2022/12/27 01:04:14;;;;;;;;;;;;;;;6.35;77.05;100916.63;4917173;29;19927;-86
2022/12/27 01:06:41;;;;;;;;;;;;;;;6.30;77.32;100921.28;4898962;29;19980;-86
2022/12/27 01:09:07;;;;;;;;;;;;;;;6.26;78.25;100939.09;4874855;29;19938;-86
2022/12/27 01:11:34;;;;;;;;;;;;;;;6.21;78.23;100938.47;4900448;29;19923;-85
2022/12/27 01:14:02;;;;;;;;;;;;;;;6.21;76.73;100935.84;4906648;29;20009;-86
2022/12/27 01:16:29;;;;;;;;;;;;;;;6.13;76.89;100935.41;4915284;29;19967;-86
2022/12/27 01:18:57;;;;;;;;;;;;;;;6.19;76.18;100942.13;4868478;29;19931;-86
2022/12/27 01:21:24;;;;;;;;;;;;;;;6.15;76.28;100943.22;4907554;29;19956;-85
2022/12/27 01:23:50;;;;;;;;;;;;;;;6.05;77.62;100938.41;4901846;29;19962;-85
2022/12/27 01:26:19;;;;;;;;;;;;;;;6.01;77.88;100942.16;4904541;29;19923;-86
2022/12/27 01:28:45;;;;;;;;;;;;;;;6.04;76.58;100946.41;4914391;29;19924;-86
2022/12/27 01:31:13;;;;;;;;;;;;;;;6.02;76.43;100957.03;4891434;29;19930;-85
2022/12/27 01:33:40;;;;;;;;;;;;;;;5.92;76.83;100958.41;4903647;29;19983;-85
2022/12/27 01:36:17;;;;;;;;;;;;;;;5.84;77.42;100968.47;4894944;29;20326;-86
2022/12/27 01:38:44;;;;;;;;;;;;;;;5.82;77.67;100970.34;4894264;29;19923;-86
2022/12/27 01:44:22;;;;;;;;;;;;;;;5.87;77.39;100977.06;4876864;29;19927;-85
2022/12/27 01:46:48;;;;;;;;;;;;;;;5.84;77.76;100987.78;4898922;29;19957;-86
2022/12/27 01:49:15;;;;;;;;;;;;;;;5.92;77.76;100978.63;4888093;29;19931;-86
2022/12/27 01:51:41;;;;;;;;;;;;;;;5.96;77.98;100986.34;4853257;29;20018;-86
2022/12/27 01:54:08;;;;;;;;;;;;;;;5.95;78.13;100992.53;4882499;29;20387;-86
2022/12/27 01:56:34;;;;;;;;;;;;;;;5.95;78.99;100989.06;4903282;29;19935;-85
2022/12/27 01:59:02;;;;;;;;;;;;;;;5.94;78.52;100996.13;4915528;29;19923;-85
2022/12/27 02:01:29;;;;;;;;;;;;;;;5.97;78.31;100995.94;4905915;29;19959;-85
2022/12/27 02:04:01;;;;;;;;;;;;;;;5.95;78.38;100994.31;4899966;29;19982;-86
2022/12/27 02:06:28;;;;;;;;;;;;;;;5.90;78.84;100988.41;4887947;29;19927;-86
2022/12/27 02:09:03;;;;;;;;;;;;;;;5.93;78.59;100990.88;4870090;29;19973;-86
2022/12/27 02:11:49;;;;;;;;;;;;;;;5.92;78.58;100994.44;4868461;29;19923;-86
2022/12/27 02:14:25;;;;;;;;;;;;;;;5.89;79.25;101006.00;4888529;29;20014;-85
2022/12/27 02:16:54;;;;;;;;;;;;;;;5.93;79.78;101002.31;4896766;29;19930;-86
2022/12/27 02:19:21;;;;;;;;;;;;;;;5.97;80.67;101005.66;4901677;29;19974;-86
2022/12/27 02:21:59;;;;;;;;;;;;;;;6.01;80.89;100996.66;4905439;29;19941;-85
2022/12/27 02:24:29;;;;;;;;;;;;;;;5.99;80.07;100999.38;4898442;29;20014;-85
2022/12/27 02:27:06;;;;;;;;;;;;;;;6.00;80.62;101000.22;4900349;29;19962;-86
2022/12/27 02:29:51;;;;;;;;;;;;;;;5.96;80.28;100999.53;4890523;29;20389;-87
2022/12/27 02:32:20;;;;;;;;;;;;;;;6.02;80.54;101009.75;4881241;29;20068;-85
2022/12/27 02:34:53;;;;;;;;;;;;;;;6.01;80.79;101005.44;4914564;29;19923;-86
2022/12/27 02:37:19;;;;;;;;;;;;;;;5.99;80.09;101009.91;4881188;29;19930;-86
2022/12/27 02:39:46;;;;;;;;;;;;;;;6.01;80.08;101015.97;4916692;29;19929;-86
2022/12/27 02:53:26;;;;;;;;;;;;;;;6.13;80.41;101019.78;4899722;29;20434;-86
2022/12/27 02:58:46;;;;;;;;;;;;;;;6.14;80.52;101018.00;4880182;29;19930;-86
2022/12/27 03:04:17;;;;;;;;;;;;;;;6.03;80.60;101026.41;4877277;29;19987;-86
2022/12/27 03:06:49;;;;;;;;;;;;;;;6.04;80.90;101029.00;4893787;29;19930;-85
2022/12/27 03:18:08;;;;;;;;;;;;;;;5.88;81.07;101028.88;4860560;29;19930;-86
2022/12/27 03:26:05;;;;;;;;;;;;;;;5.78;81.70;101032.91;4872453;29;20288;-86
2022/12/27 03:39:39;;;;;;;;;;;;;;;5.70;82.73;101036.81;4824043;29;20019;-85
2022/12/27 03:44:53;;;;;;;;;;;;;;;5.68;82.25;101038.72;4801951;29;19924;-86
2022/12/27 03:47:41;;;;;;;;;;;;;;;5.81;81.05;101032.75;4820995;29;20372;-86
2022/12/27 03:50:20;;;;;;;;;;;;;;;5.90;79.84;101038.50;4812228;29;19932;-85
2022/12/27 03:52:48;;;;;;;;;;;;;;;5.87;79.97;101034.22;4839746;29;20010;-86
2022/12/27 03:55:15;;;;;;;;;;;;;;;5.95;79.40;101033.88;4886271;29;20029;-86
2022/12/27 03:57:42;;;;;;;;;;;;;;;5.91;79.79;101041.06;4857179;29;19923;-85
2022/12/27 04:00:09;;;;;;;;;;;;;;;5.87;79.77;101040.34;4886351;29;19994;-86
2022/12/27 04:02:38;;;;;;;;;;;;;;;5.80;79.92;101046.00;4850378;29;19934;-86
2022/12/27 04:05:05;;;;;;;;;;;;;;;5.81;80.03;101037.16;4869504;29;19927;-86
2022/12/27 04:07:32;;;;;;;;;;;;;;;5.73;80.77;101045.47;4898528;29;19923;-85
2022/12/27 04:34:46;;;;;;;;;;;;;;;5.48;83.84;101051.06;4897721;29;19934;-86
2022/12/27 04:37:14;;;;;;;;;;;;;;;5.50;83.32;101056.25;4886014;29;20014;-86
2022/12/27 04:39:41;;;;;;;;;;;;;;;5.51;83.55;101047.41;4876707;29;19929;-87
2022/12/27 04:56:03;;;;;;;;;;;;;;;5.60;84.15;101061.00;4854257;29;19986;-86
2022/12/27 04:58:30;;;;;;;;;;;;;;;5.57;84.72;101060.28;4917303;28;20013;-86
2022/12/27 05:03:42;;;;;;;;;;;;;;;5.46;84.61;101065.22;4883856;29;19924;-86
2022/12/27 05:06:08;;;;;;;;;;;;;;;5.46;84.45;101078.41;4898936;29;19924;-86
2022/12/27 05:14:07;;;;;;;;;;;;;;;5.32;83.68;101079.91;4878203;29;19959;-87
2022/12/27 05:16:35;;;;;;;;;;;;;;;5.34;83.51;101080.69;4916702;29;19923;-86
2022/12/27 05:19:01;;;;;;;;;;;;;;;5.33;83.29;101078.97;4917933;29;20319;-86
2022/12/27 05:21:28;;;;;;;;;;;;;;;5.30;83.09;101083.53;4898135;29;19923;-87
2022/12/27 05:26:40;;;;;;;;;;;;;;;5.44;83.00;101089.88;4859217;29;19928;-86
2022/12/27 05:29:07;;;;;;;;;;;;;;;5.41;82.89;101092.63;4869109;29;19931;-86
2022/12/27 05:31:33;;;;;;;;;;;;;;;5.52;82.58;101092.16;4867115;29;19981;-87
2022/12/27 05:34:00;;;;;;;;;;;;;;;5.51;82.39;101086.94;4866517;29;20343;-86
2022/12/27 05:36:27;;;;;;;;;;;;;;;5.54;82.10;101090.28;4853171;29;20322;-86
2022/12/27 05:38:53;;;;;;;;;;;;;;;5.46;82.19;101079.25;4853259;29;19923;-86
2022/12/27 05:41:20;;;;;;;;;;;;;;;5.55;81.73;101084.09;4848733;29;19923;-86
2022/12/27 05:43:46;;;;;;;;;;;;;;;5.47;82.05;101080.97;4850451;29;19923;-86
2022/12/27 05:46:14;;;;;;;;;;;;;;;5.43;81.90;101079.41;4869126;29;19975;-87
2022/12/27 05:48:41;;;;;;;;;;;;;;;5.41;82.05;101081.25;4852123;29;20363;-86
2022/12/27 05:51:11;;;;;;;;;;;;;;;5.29;82.65;101073.91;4836440;29;20490;-86
2022/12/27 05:53:38;;;;;;;;;;;;;;;5.30;82.59;101071.22;4841151;29;19927;-85
2022/12/27 05:56:05;;;;;;;;;;;;;;;5.30;82.34;101083.53;4868821;29;20372;-85
2022/12/27 05:58:32;;;;;;;;;;;;;;;5.27;82.33;101086.31;4905704;29;20438;-87
2022/12/27 06:00:59;;;;;;;;;;;;;;;5.25;82.94;101089.00;4918393;29;19923;-86
2022/12/27 06:03:25;;;;;;;;;;;;;;;5.23;82.84;101091.69;4900426;29;20367;-86
2022/12/27 06:05:58;;;;;;;;;;;;;;;5.24;82.33;101092.59;4900476;29;19978;-87
2022/12/27 06:08:24;;;;;;;;;;;;;;;5.17;82.39;101099.03;4894773;29;19930;-86
2022/12/27 06:10:59;;;;;;;;;;;;;;;5.08;82.66;101113.47;4888896;29;19930;-86
2022/12/27 06:13:25;;;;;;;;;;;;;;;5.07;82.59;101114.41;4888890;29;20356;-86
2022/12/27 06:15:52;;;;;;;;;;;;;;;5.03;82.50;101112.81;4885497;29;20010;-87
2022/12/27 06:18:19;;;;;;;;;;;;;;;4.99;82.36;101117.38;4916060;29;19966;-86
2022/12/27 06:20:45;;;;;;;;;;;;;;;4.97;82.59;101111.31;4916833;29;19966;-86
2022/12/27 06:23:12;;;;;;;;;;;;;;;4.96;82.83;101121.91;4895352;29;20013;-87
2022/12/27 06:25:38;;;;;;;;;;;;;;;4.90;82.70;101117.78;4902238;29;20075;-86
2022/12/27 06:28:05;;;;;;;;;;;;;;;4.95;82.80;101121.06;4877167;29;19927;-86
2022/12/27 06:30:31;;;;;;;;;;;;;;;4.91;82.87;101124.78;4918071;29;20423;-86
2022/12/27 06:33:01;;;;;;;;;;;;;;;4.86;83.39;101121.50;4904113;29;19935;-86
2022/12/27 06:35:28;;;;;;;;;;;;;;;4.84;83.05;101125.09;4905319;29;20335;-86
2022/12/27 06:37:55;;;;;;;;;;;;;;;4.84;82.71;101118.06;4883902;29;20390;-86
2022/12/27 06:40:21;;;;;;;;;;;;;;;4.82;83.33;101125.16;4901763;29;20008;-85
2022/12/27 06:42:48;;;;;;;;;;;;;;;4.78;83.21;101118.31;4893909;29;19979;-86
2022/12/27 06:45:14;;;;;;;;;;;;;;;4.82;83.29;101125.16;4905846;29;20355;-86
2022/12/27 06:47:41;;;;;;;;;;;;;;;4.76;82.80;101120.19;4877802;29;22176;-86
2022/12/27 06:50:07;;;;;;;;;;;;;;;4.80;82.97;101127.00;4889542;29;19927;-86
2022/12/27 06:52:34;;;;;;;;;;;;;;;4.83;83.14;101118.13;4888556;29;20339;-85
2022/12/27 06:55:01;;;;;;;;;;;;;;;4.92;83.12;101128.25;4917293;29;19924;-86
2022/12/27 06:57:27;;;;;;;;;;;;;;;4.89;83.31;101125.75;4886781;29;19926;-86
2022/12/27 06:59:54;;;;;;;;;;;;;;;4.90;83.15;101133.56;4903933;29;19931;-86
2022/12/27 07:02:20;;;;;;;;;;;;;;;4.83;83.38;101129.50;4877199;29;19924;-86
2022/12/27 07:04:47;;;;;;;;;;;;;;;4.88;83.22;101131.94;4905604;29;19930;-86
2022/12/27 07:07:13;;;;;;;;;;;;;;;4.83;83.43;101126.88;4905746;29;24491;-85
2022/12/27 07:09:41;;;;;;;;;;;;;;;4.79;83.72;101138.47;4917039;29;19930;-85
2022/12/27 07:12:08;;;;;;;;;;;;;;;4.79;83.14;101136.69;4894610;29;19927;-86
2022/12/27 07:14:34;;;;;;;;;;;;;;;4.80;83.46;101129.63;4886706;29;19932;-86
2022/12/27 07:17:01;;;;;;;;;;;;;;;4.78;83.67;101140.25;4902763;29;19923;-86
2022/12/27 07:19:27;;;;;;;;;;;;;;;4.87;83.32;101141.59;4903493;29;19922;-85
2022/12/27 07:21:54;;;;;;;;;;;;;;;4.88;83.17;101134.56;4903056;29;19963;-85
2022/12/27 07:24:20;;;;;;;;;;;;;;;4.82;83.47;101127.78;4921743;29;19927;-86
2022/12/27 07:26:47;;;;;;;;;;;;;;;4.87;83.42;101135.50;4890546;29;19927;-85
2022/12/27 07:29:13;;;;;;;;;;;;;;;4.82;83.21;101135.69;4877659;29;19927;-84
2022/12/27 07:31:40;;;;;;;;;;;;;;;4.78;83.33;101147.25;4877625;29;19923;-85
2022/12/27 07:34:08;;;;;;;;;;;;;;;4.68;83.72;101153.84;4917549;29;20029;-85
2022/12/27 07:36:36;;;;;;;;;;;;;;;4.71;83.04;101151.94;4918298;29;19927;-86
2022/12/27 07:39:03;;;;;;;;;;;;;;;4.75;83.64;101155.28;4902163;29;19927;-86
2022/12/27 07:41:29;;;;;;;;;;;;;;;4.74;83.65;101154.44;4905066;29;19923;-85
2022/12/27 07:43:59;;;;;;;;;;;;;;;4.69;83.71;101163.47;4892973;29;20342;-84
2022/12/27 07:46:26;;;;;;;;;;;;;;;4.73;83.64;101171.16;4903945;29;19959;-84
2022/12/27 07:48:54;;;;;;;;;;;;;;;4.78;83.49;101165.69;4920678;29;19959;-84
2022/12/27 07:51:20;;;;;;;;;;;;;;;4.75;84.06;101163.19;4914112;29;19927;-85
2022/12/27 07:53:48;;;;;;;;;;;;;;;4.76;84.30;101164.91;4889704;29;20260;-86
2022/12/27 07:56:19;;;;;;;;;;;;;;;4.75;84.31;101171.09;4889218;29;19974;-84
2022/12/27 07:58:52;;;;;;;;;;;;;;;4.69;84.67;101172.19;4875905;29;20399;-85
2022/12/27 08:01:19;;;;;;;;;;;;;;;4.73;85.19;101170.28;4871422;29;19939;-84
2022/12/27 08:03:46;;;;;;;;;;;;;;;4.75;84.48;101173.72;4890290;29;20410;-84
2022/12/27 08:06:19;;;;;;;;;;;;;;;4.78;84.39;101181.47;4917160;29;19923;-84
2022/12/27 08:08:45;;;;;;;;;;;;;;;4.85;84.46;101171.53;4899344;29;19929;-84
2022/12/27 08:11:12;;;;;;;;;;;;;;;4.89;84.59;101175.78;4900274;29;20290;-84
2022/12/27 08:13:38;;;;;;;;;;;;;;;4.94;84.49;101173.78;4913293;29;20295;-84
2022/12/27 08:16:05;;;;;;;;;;;;;;;5.05;84.27;101168.91;4915488;29;19951;-85
2022/12/27 08:18:32;;;;;;;;;;;;;;;5.12;84.16;101162.44;4919927;29;19927;-85
2022/12/27 08:20:58;;;;;;;;;;;;;;;5.19;83.79;101161.25;4903447;29;19927;-85
2022/12/27 08:23:25;;;;;;;;;;;;;;;5.23;83.73;101154.91;4894292;29;19923;-86
2022/12/27 08:25:51;;;;;;;;;;;;;;;5.34;83.11;101158.84;4914443;29;20386;-85
2022/12/27 08:28:19;;;;;;;;;;;;;;;5.34;82.45;101156.19;4917498;29;19933;-85
2022/12/27 08:30:47;;;;;;;;;;;;;;;5.59;82.05;101156.78;4896190;29;19938;-83
2022/12/27 08:33:14;;;;;;;;;;;;;;;5.64;81.62;101157.41;4900303;29;20383;-85
2022/12/27 08:35:41;;;;;;;;;;;;;;;5.67;81.61;101159.06;4918523;29;19926;-85
2022/12/27 08:38:19;;;;;;;;;;;;;;;5.74;81.18;101176.28;4890493;29;19930;-85
2022/12/27 08:40:45;;;;;;;;;;;;;;;5.74;81.06;101167.53;4876829;29;19923;-85
2022/12/27 08:43:12;;;;;;;;;;;;;;;5.80;81.04;101173.38;4876000;29;19958;-84
2022/12/27 08:45:39;;;;;;;;;;;;;;;5.80;80.76;101175.16;4915936;29;19930;-84
2022/12/27 08:48:06;;;;;;;;;;;;;;;5.84;80.60;101169.66;4900623;29;19970;-85
2022/12/27 08:50:33;;;;;;;;;;;;;;;5.82;80.64;101178.56;4902541;29;19923;-85
2022/12/27 08:53:00;;;;;;;;;;;;;;;5.84;80.59;101172.28;4901555;29;19923;-84
2022/12/27 08:55:27;;;;;;;;;;;;;;;5.92;80.44;101181.63;4886847;29;20013;-84
2022/12/27 08:58:01;;;;;;;;;;;;;;;5.92;80.35;101182.47;4886275;29;20032;-84
2022/12/27 09:00:27;;;;;;;;;;;;;;;5.99;80.29;101181.28;4863102;29;19961;-84
2022/12/27 09:02:54;;;;;;;;;;;;;;;6.05;79.97;101188.06;4871933;29;19930;-83
2022/12/27 09:05:21;;;;;;;;;;;;;;;6.05;80.23;101182.78;4870919;29;19927;-84
2022/12/27 09:07:48;;;;;;;;;;;;;;;6.11;80.62;101189.53;4850541;29;20010;-84
2022/12/27 09:10:14;;;;;;;;;;;;;;;6.06;79.13;101198.53;4884624;29;19928;-84
2022/12/27 09:12:41;;;;;;;;;;;;;;;6.18;79.75;101199.75;4853832;29;19929;-87
2022/12/27 09:15:08;;;;;;;;;;;;;;;6.20;79.52;101202.28;4866266;29;19923;-86
2022/12/27 09:17:35;;;;;;;;;;;;;;;6.22;79.59;101200.44;4867048;29;19955;-86
2022/12/27 09:20:02;;;;;;;;;;;;;;;6.24;79.34;101193.31;4855290;29;19983;-86
2022/12/27 09:22:28;;;;;;;;;;;;;;;6.23;79.36;101184.56;4853380;29;20371;-86
2022/12/27 09:24:55;;;;;;;;;;;;;;;6.28;79.27;101179.91;4868645;29;19979;-87
2022/12/27 09:27:22;;;;;;;;;;;;;;;6.24;78.37;101188.88;4851451;29;20355;-87
2022/12/27 09:29:49;;;;;;;;;;;;;;;6.32;78.99;101192.94;4884881;29;19923;-88
2022/12/27 09:32:15;;;;;;;;;;;;;;;6.36;79.02;101189.19;4908151;29;19923;-87
2022/12/27 09:34:42;;;;;;;;;;;;;;;6.40;78.67;101194.25;4905500;29;20391;-87
2022/12/27 09:37:08;;;;;;;;;;;;;;;6.44;78.98;101195.81;4899434;29;19931;-87
2022/12/27 09:39:35;;;;;;;;;;;;;;;6.48;79.27;101192.09;4873067;29;19923;-86
2022/12/27 09:42:07;;;;;;;;;;;;;;;6.51;79.06;101199.88;4907102;29;19923;-85
2022/12/27 09:44:57;;;;;;;;;;;;;;;6.57;78.91;101197.84;4840743;29;19931;-85
2022/12/27 09:47:52;;;;;;;;;;;;;;;6.61;79.11;101199.41;4885357;29;19949;-86
2022/12/27 09:50:22;;;;;;;;;;;;;;;6.62;78.63;101198.47;4850740;29;20407;-85
2022/12/27 09:53:05;;;;;;;;;;;;;;;6.65;78.74;101203.59;4887670;29;19924;-86
2022/12/27 09:55:40;;;;;;;;;;;;;;;6.66;78.96;101197.38;4843934;29;19975;-87
2022/12/27 09:58:17;;;;;;;;;;;;;;;6.68;79.21;101199.00;4885040;29;19951;-85
2022/12/27 10:00:44;;;;;;;;;;;;;;;6.73;79.04;101202.28;4890828;29;19923;-87
2022/12/27 10:03:12;;;;;;;;;;;;;;;6.75;78.98;101212.75;4904383;29;20389;-86
2022/12/27 10:05:38;;;;;;;;;;;;;;;6.78;79.11;101202.03;4905380;29;19950;-85
2022/12/27 10:08:24;;;;;;;;;;;;;;;6.81;79.52;101203.69;4884833;29;20405;-85
2022/12/27 10:10:53;;;;;;;;;;;;;;;6.85;78.90;101197.31;4871257;29;21036;-86
2022/12/27 10:13:26;;;;;;;;;;;;;;;6.84;78.39;101200.88;4903134;29;19978;-86
2022/12/27 10:15:59;;;;;;;;;;;;;;;6.87;78.64;101200.72;4875051;29;19975;-87
2022/12/27 10:18:45;;;;;;;;;;;;;;;6.92;78.73;101202.22;4905912;29;19923;-88
2022/12/27 10:21:14;;;;;;;;;;;;;;;6.96;79.24;101197.59;4868340;29;20465;-85
2022/12/27 10:23:42;;;;;;;;;;;;;;;6.96;78.85;101201.09;4896238;29;19923;-88
2022/12/27 10:26:13;;;;;;;;;;;;;;;6.98;78.74;101198.38;4901697;29;19923;-88
2022/12/27 10:28:43;;;;;;;;;;;;;;;7.01;79.00;101195.59;4792125;29;19930;-88
2022/12/27 10:31:13;;;;;;;;;;;;;;;7.02;78.88;101194.66;4818161;29;20265;-88
2022/12/27 10:33:40;;;;;;;;;;;;;;;7.04;78.89;101198.06;4737844;29;20169;-86
2022/12/27 10:36:27;;;;;;;;;;;;;;;7.05;78.80;101193.66;4784014;29;20011;-86
2022/12/27 10:38:54;;;;;;;;;;;;;;;7.04;79.31;101187.50;4787211;29;19982;-86
2022/12/27 10:41:38;;;;;;;;;;;;;;;7.05;78.96;101188.38;4790968;29;19949;-86
2022/12/27 10:44:09;;;;;;;;;;;;;;;7.05;78.32;101196.28;4777962;29;19936;-87
2022/12/27 10:46:35;;;;;;;;;;;;;;;7.05;79.05;101189.22;4789106;29;20290;-90
2022/12/27 10:49:20;;;;;;;;;;;;;;;7.06;78.60;101182.16;4789884;29;21485;-89
2022/12/27 10:51:48;;;;;;;;;;;;;;;7.06;78.52;101179.50;4792951;29;19925;-89
2022/12/27 10:54:20;;;;;;;;;;;;;;;7.05;77.88;101176.00;4776481;29;20339;-85
2022/12/27 10:56:47;;;;;;;;;;;;;;;7.08;78.57;101177.66;4790233;29;20441;-86
2022/12/27 10:59:15;;;;;;;;;;;;;;;7.07;78.05;101178.56;4790766;29;19932;-87
2022/12/27 11:01:44;;;;;;;;;;;;;;;7.09;78.68;101172.25;4840906;29;20373;-85
2022/12/27 11:04:15;;;;;;;;;;;;;;;7.08;78.54;101165.28;4824746;29;20390;-85
2022/12/27 11:06:58;;;;;;;;;;;;;;;7.09;78.16;101163.50;4873142;29;19927;-85
2022/12/27 11:09:31;;;;;;;;;;;;;;;7.12;78.62;101174.75;4921009;29;20002;-86
2022/12/27 11:12:11;;;;;;;;;;;;;;;7.13;78.50;101173.81;4895347;29;19923;-86
2022/12/27 11:14:37;;;;;;;;;;;;;;;7.13;78.29;101167.69;4874888;29;19975;-84
2022/12/27 11:17:12;;;;;;;;;;;;;;;7.15;78.86;101156.09;4887675;29;20020;-85
2022/12/27 11:19:40;;;;;;;;;;;;;;;7.07;77.14;101163.59;4893685;29;19923;-85
2022/12/27 11:22:06;;;;;;;;;;;;;;;7.16;78.19;101155.16;4896606;29;20291;-87
2022/12/27 11:24:33;;;;;;;;;;;;;;;7.18;78.40;101161.22;4885329;29;20375;-85
2022/12/27 11:27:00;;;;;;;;;;;;;;;7.22;78.69;101163.69;4881498;29;19927;-84
2022/12/27 11:29:27;;;;;;;;;;;;;;;7.23;78.71;101157.50;4887005;29;20359;-85
2022/12/27 11:31:53;;;;;;;;;;;;;;;7.21;78.15;101164.63;4885482;29;19934;-85
2022/12/27 11:34:25;;;;;;;;;;;;;;;7.19;78.50;101170.00;4918294;29;19945;-85
2022/12/27 11:36:53;;;;;;;;;;;;;;;7.17;78.59;101171.84;4888379;29;19954;-89
2022/12/27 11:39:39;;;;;;;;;;;;;;;7.16;78.79;101164.88;4885953;29;19929;-88
2022/12/27 11:42:23;;;;;;;;;;;;;;;7.12;78.33;101156.28;4874458;29;19923;-87
2022/12/27 11:44:54;;;;;;;;;;;;;;;7.15;78.67;101156.09;4839184;29;19927;-86
2022/12/27 11:47:27;;;;;;;;;;;;;;;7.09;77.67;101150.28;4903227;29;20379;-86
2022/12/27 11:49:55;;;;;;;;;;;;;;;7.16;78.58;101149.03;4905478;29;20264;-87
2022/12/27 11:52:32;;;;;;;;;;;;;;;7.23;78.88;101152.22;4921457;28;19927;-87
2022/12/27 11:55:18;;;;;;;;;;;;;;;7.31;78.60;101152.66;4886374;29;20294;-87
2022/12/27 11:58:03;;;;;;;;;;;;;;;7.34;78.75;101163.03;4894614;29;20001;-86
2022/12/27 12:00:39;;;;;;;;;;;;;;;7.37;78.62;101154.94;4878766;29;19929;-88
2022/12/27 12:03:35;;;;;;;;;;;;;;;7.36;78.71;101154.09;4874872;29;19927;-87
2022/12/27 12:06:05;;;;;;;;;;;;;;;7.37;78.85;101147.00;4799375;29;20014;-87
2022/12/27 12:08:38;;;;;;;;;;;;;;;7.31;77.77;101148.22;4917724;29;19923;-86
2022/12/27 12:11:23;;;;;;;;;;;;;;;7.28;78.34;101151.03;4909577;29;19923;-87
2022/12/27 12:13:59;;;;;;;;;;;;;;;7.26;78.65;101152.03;4874343;29;19930;-86
2022/12/27 12:16:39;;;;;;;;;;;;;;;7.26;77.87;101157.31;4887018;29;20422;-82
2022/12/27 12:19:18;;;;;;;;;;;;;;;7.28;78.21;101158.09;4890100;29;19966;-83
2022/12/27 12:21:47;;;;;;;;;;;;;;;7.29;78.61;101159.78;4881880;29;19923;-84
2022/12/27 12:24:14;;;;;;;;;;;;;;;7.27;77.84;101164.28;4918048;29;19928;-84
2022/12/27 12:26:59;;;;;;;;;;;;;;;7.27;78.13;101153.72;4904833;29;20338;-83
2022/12/27 12:29:35;;;;;;;;;;;;;;;7.26;78.28;101158.16;4860681;29;19923;-82
2022/12/27 12:32:20;;;;;;;;;;;;;;;7.26;78.24;101149.41;4918024;29;19986;-83
2022/12/27 12:34:54;;;;;;;;;;;;;;;7.25;77.96;101160.88;4861058;29;19927;-82
2022/12/27 12:37:56;;;;;;;;;;;;;;;7.24;78.44;101160.03;4905561;29;19935;-82
2022/12/27 12:40:22;;;;;;;;;;;;;;;7.18;77.71;101155.94;4824657;29;20330;-82
2022/12/27 12:42:49;;;;;;;;;;;;;;;7.16;77.53;101163.09;4877594;29;19934;-85
2022/12/27 12:45:15;;;;;;;;;;;;;;;7.16;78.39;101151.66;4899996;29;19931;-83
2022/12/27 12:48:15;;;;;;;;;;;;;;;7.15;78.18;101155.25;4901372;29;19923;-84
2022/12/27 12:50:51;;;;;;;;;;;;;;;7.13;78.79;101150.03;4812939;29;19935;-85
2022/12/27 12:53:21;;;;;;;;;;;;;;;7.13;78.87;101154.47;4855784;29;20345;-83
2022/12/27 12:55:47;;;;;;;;;;;;;;;7.25;82.70;101152.94;4837507;29;20288;-85
2022/12/27 12:58:14;;;;;;;;;;;;;;;7.24;80.02;101152.09;4861769;29;19935;-85
2022/12/27 13:00:55;;;;;;;;;;;;;;;7.23;79.21;101149.56;4842604;29;19927;-85
2022/12/27 13:03:29;;;;;;;;;;;;;;;7.19;79.40;101156.78;4795101;29;19968;-88
2022/12/27 13:06:14;;;;;;;;;;;;;;;7.16;79.35;101152.50;4807169;29;19930;-86
2022/12/27 13:08:46;;;;;;;;;;;;;;;7.13;79.00;101151.84;4851230;29;20042;-85
2022/12/27 13:11:23;;;;;;;;;;;;;;;7.13;79.23;101155.31;4804386;29;19930;-87
2022/12/27 13:13:53;;;;;;;;;;;;;;;7.13;79.48;101154.47;4826350;29;19952;-87
2022/12/27 13:16:20;;;;;;;;;;;;;;;7.12;79.20;101152.75;4852835;29;19924;-86
2022/12/27 13:18:47;;;;;;;;;;;;;;;7.11;79.56;101149.25;4836480;29;19978;-87
2022/12/27 13:21:22;;;;;;;;;;;;;;;7.10;79.43;101152.84;4851114;29;19928;-87
2022/12/27 13:24:06;;;;;;;;;;;;;;;7.10;79.32;101154.66;4874846;29;19930;-88
2022/12/27 13:26:52;;;;;;;;;;;;;;;7.09;79.00;101152.91;4838219;29;19935;-86
2022/12/27 13:29:37;;;;;;;;;;;;;;;7.08;79.10;101153.88;4872396;29;20375;-86
2022/12/27 13:32:06;;;;;;;;;;;;;;;7.09;79.09;101148.50;4837285;29;20339;-86
2022/12/27 13:34:42;;;;;;;;;;;;;;;7.08;78.60;101145.94;4879783;29;20828;-86
2022/12/27 13:37:18;;;;;;;;;;;;;;;7.08;78.84;101140.66;4874396;29;19938;-86
2022/12/27 13:39:48;;;;;;;;;;;;;;;7.08;78.86;101133.59;4823341;29;20415;-85
2022/12/27 13:42:26;;;;;;;;;;;;;;;7.07;78.94;101123.97;4854847;29;19927;-86
2022/12/27 13:44:53;;;;;;;;;;;;;;;7.07;78.77;101117.81;4865228;29;20333;-87
2022/12/27 13:47:40;;;;;;;;;;;;;;;7.08;78.60;101116.88;4840024;29;19970;-90
2022/12/27 13:50:09;;;;;;;;;;;;;;;7.08;78.65;101122.19;4847635;29;20023;-87
2022/12/27 13:52:53;;;;;;;;;;;;;;;7.07;78.77;101123.09;4871002;29;19931;-87
2022/12/27 13:55:44;;;;;;;;;;;;;;;7.05;78.52;101123.19;4833122;29;19956;-85
2022/12/27 13:58:20;;;;;;;;;;;;;;;7.06;78.94;101130.16;4849113;29;20418;-86
2022/12/27 14:00:51;;;;;;;;;;;;;;;7.05;79.04;101125.84;4895319;29;20367;-86
2022/12/27 14:03:22;;;;;;;;;;;;;;;7.06;78.82;101113.47;4886743;29;19939;-84
2022/12/27 14:06:07;;;;;;;;;;;;;;;7.07;78.90;101115.16;4888663;29;19939;-86
2022/12/27 14:08:53;;;;;;;;;;;;;;;7.05;79.30;101112.63;4890078;29;19923;-86
2022/12/27 14:11:38;;;;;;;;;;;;;;;6.99;80.39;101125.28;4910931;29;20018;-84
2022/12/27 14:14:04;;;;;;;;;;;;;;;6.95;81.04;101121.97;4910215;29;20319;-86
2022/12/27 14:16:36;;;;;;;;;;;;;;;6.92;81.38;101125.63;4893438;29;19931;-86
2022/12/27 14:19:03;;;;;;;;;;;;;;;6.88;81.57;101123.22;4872257;29;20010;-85
2022/12/27 14:21:51;;;;;;;;;;;;;;;6.83;81.97;101114.69;4889169;29;20140;-86
2022/12/27 14:24:21;;;;;;;;;;;;;;;6.68;84.41;101119.81;4892984;29;19930;-86
2022/12/27 14:26:59;;;;;;;;;;;;;;;6.79;82.20;101123.69;4902798;29;19958;-86
2022/12/27 14:29:27;;;;;;;;;;;;;;;6.73;82.59;101120.44;4913290;29;19931;-86
2022/12/27 14:31:53;;;;;;;;;;;;;;;6.75;81.81;101123.00;4919023;29;19923;-85
2022/12/27 14:34:26;;;;;;;;;;;;;;;6.71;83.39;101126.72;4901931;29;19953;-86
2022/12/27 14:37:25;;;;;;;;;;;;;;;6.67;83.81;101123.41;4906457;29;20279;-85
2022/12/27 14:40:07;;;;;;;;;;;;;;;6.68;82.65;101127.75;4836891;29;19927;-86
2022/12/27 14:42:33;;;;;;;;;;;;;;;6.69;82.96;101128.59;4859358;29;19931;-85